createdAt,value
2023-04-30T00:00:16.017Z,543.00
2023-04-30T00:01:15.799Z,544.00
2023-04-30T00:02:15.831Z,546.00
2023-04-30T00:03:15.872Z,542.00
2023-04-30T00:04:15.899Z,540.00
2023-04-30T00:05:15.916Z,548.00
2023-04-30T00:06:15.990Z,544.00
2023-04-30T00:07:15.965Z,541.00
2023-04-30T00:08:16.015Z,541.00
2023-04-30T00:09:15.994Z,543.00
2023-04-30T00:10:16.058Z,544.00
2023-04-30T00:11:16.070Z,542.00
2023-04-30T00:12:16.111Z,548.00
2023-04-30T00:13:16.136Z,545.00
2023-04-30T00:14:16.194Z,548.00
2023-04-30T00:15:16.178Z,543.00
2023-04-30T00:16:16.258Z,544.00
2023-04-30T00:17:16.240Z,545.00
2023-04-30T00:18:16.277Z,539.00
2023-04-30T00:19:16.319Z,543.00
2023-04-30T00:20:16.359Z,542.00
2023-04-30T00:21:16.368Z,540.00
2023-04-30T00:22:16.397Z,542.00
2023-04-30T00:23:16.402Z,541.00
2023-04-30T00:24:16.463Z,545.00
2023-04-30T00:25:16.463Z,540.00
2023-04-30T00:26:16.488Z,545.00
2023-04-30T00:27:16.536Z,541.00
2023-04-30T00:28:16.557Z,540.00
2023-04-30T00:29:16.606Z,541.00
2023-04-30T00:30:16.637Z,543.00
2023-04-30T00:31:16.650Z,543.00
2023-04-30T00:32:16.734Z,540.00
2023-04-30T00:33:16.726Z,545.00
2023-04-30T00:34:16.742Z,535.00
2023-04-30T00:35:16.759Z,539.00
2023-04-30T00:36:17.007Z,541.00
2023-04-30T00:37:16.847Z,543.00
2023-04-30T00:38:16.866Z,540.00
2023-04-30T00:39:16.881Z,542.00
2023-04-30T00:40:16.949Z,541.00
2023-04-30T00:41:16.934Z,544.00
2023-04-30T00:42:16.970Z,539.00
2023-04-30T00:43:16.963Z,541.00
2023-04-30T00:44:17.007Z,537.00
2023-04-30T00:45:17.038Z,540.00
2023-04-30T00:46:17.156Z,538.00
2023-04-30T00:47:17.086Z,541.00
2023-04-30T00:48:17.139Z,541.00
2023-04-30T00:49:17.160Z,538.00
2023-04-30T00:50:17.168Z,540.00
2023-04-30T00:51:17.197Z,542.00
2023-04-30T00:52:17.229Z,539.00
2023-04-30T00:53:17.262Z,542.00
2023-04-30T00:54:17.268Z,540.00
2023-04-30T00:55:17.319Z,533.00
2023-04-30T00:56:17.381Z,538.00
2023-04-30T00:57:17.416Z,538.00
2023-04-30T00:58:17.405Z,536.00
2023-04-30T00:59:17.537Z,537.00
2023-04-30T01:00:17.501Z,538.00
2023-04-30T01:01:17.544Z,537.00
2023-04-30T01:02:17.557Z,535.00
2023-04-30T01:03:17.663Z,537.00
2023-04-30T01:04:17.623Z,535.00
2023-04-30T01:05:17.661Z,534.00
2023-04-30T01:06:17.682Z,539.00
2023-04-30T01:07:17.684Z,534.00
2023-04-30T01:08:17.687Z,540.00
2023-04-30T01:09:17.770Z,541.00
2023-04-30T01:10:17.775Z,537.00
2023-04-30T01:11:17.789Z,543.00
2023-04-30T01:12:17.777Z,541.00
2023-04-30T01:13:17.794Z,535.00
2023-04-30T01:14:17.840Z,534.00
2023-04-30T01:15:17.843Z,537.00
2023-04-30T01:16:17.925Z,535.00
2023-04-30T01:17:17.891Z,538.00
2023-04-30T01:18:17.976Z,538.00
2023-04-30T01:19:17.921Z,537.00
2023-04-30T01:20:17.996Z,542.00
2023-04-30T01:21:18.000Z,543.00
2023-04-30T01:22:18.021Z,536.00
2023-04-30T01:23:18.053Z,537.00
2023-04-30T01:24:18.096Z,538.00
2023-04-30T01:25:18.247Z,536.00
2023-04-30T01:26:18.167Z,542.00
2023-04-30T01:27:18.234Z,540.00
2023-04-30T01:28:18.221Z,539.00
2023-04-30T01:29:18.272Z,535.00
2023-04-30T01:30:18.342Z,538.00
2023-04-30T01:31:18.306Z,536.00
2023-04-30T01:32:18.303Z,537.00
2023-04-30T01:33:18.395Z,538.00
2023-04-30T01:34:18.403Z,541.00
2023-04-30T01:35:18.426Z,533.00
2023-04-30T01:36:18.454Z,537.00
2023-04-30T01:37:18.622Z,537.00
2023-04-30T01:38:18.526Z,539.00
2023-04-30T01:39:18.545Z,538.00
2023-04-30T01:40:18.567Z,539.00
2023-04-30T01:41:18.652Z,529.00
2023-04-30T01:42:18.615Z,531.00
2023-04-30T01:43:18.652Z,537.00
2023-04-30T01:44:18.717Z,535.00
2023-04-30T01:45:18.693Z,537.00
2023-04-30T01:46:18.790Z,539.00
2023-04-30T01:47:18.777Z,538.00
2023-04-30T01:48:18.785Z,534.00
2023-04-30T01:49:18.863Z,534.00
2023-04-30T01:50:18.865Z,535.00
2023-04-30T01:51:18.879Z,536.00
2023-04-30T01:52:18.919Z,535.00
2023-04-30T01:53:18.963Z,531.00
2023-04-30T01:54:19.018Z,535.00
2023-04-30T01:55:19.016Z,533.00
2023-04-30T01:56:19.038Z,536.00
2023-04-30T01:57:19.122Z,529.00
2023-04-30T01:58:19.158Z,531.00
2023-04-30T01:59:19.133Z,529.00
2023-04-30T02:00:19.172Z,533.00
2023-04-30T02:01:19.190Z,528.00
2023-04-30T02:02:19.231Z,532.00
2023-04-30T02:03:19.282Z,530.00
2023-04-30T02:04:19.348Z,533.00
2023-04-30T02:05:19.317Z,533.00
2023-04-30T02:06:19.394Z,532.00
2023-04-30T02:07:19.355Z,535.00
2023-04-30T02:08:19.422Z,538.00
2023-04-30T02:09:19.431Z,523.00
2023-04-30T02:10:19.461Z,532.00
2023-04-30T02:11:19.500Z,533.00
2023-04-30T02:12:19.522Z,528.00
2023-04-30T02:13:19.533Z,530.00
2023-04-30T02:14:19.564Z,534.00
2023-04-30T02:15:19.581Z,528.00
2023-04-30T02:16:19.638Z,532.00
2023-04-30T02:17:20.552Z,529.00
2023-04-30T02:18:19.651Z,530.00
2023-04-30T02:19:19.643Z,531.00
2023-04-30T02:20:19.796Z,528.00
2023-04-30T02:21:19.699Z,531.00
2023-04-30T02:22:19.752Z,530.00
2023-04-30T02:23:19.748Z,533.00
2023-04-30T02:24:19.759Z,531.00
2023-04-30T02:25:19.801Z,528.00
2023-04-30T02:26:19.808Z,530.00
2023-04-30T02:27:19.825Z,532.00
2023-04-30T02:28:19.859Z,532.00
2023-04-30T02:29:19.869Z,533.00
2023-04-30T02:30:19.899Z,533.00
2023-04-30T02:31:19.971Z,528.00
2023-04-30T02:32:19.935Z,533.00
2023-04-30T02:33:19.972Z,527.00
2023-04-30T02:34:20.009Z,528.00
2023-04-30T02:35:20.020Z,530.00
2023-04-30T02:36:20.103Z,528.00
2023-04-30T02:37:20.062Z,531.00
2023-04-30T02:38:20.089Z,524.00
2023-04-30T02:39:20.120Z,531.00
2023-04-30T02:40:20.112Z,529.00
2023-04-30T02:41:20.187Z,529.00
2023-04-30T02:42:20.179Z,531.00
2023-04-30T02:43:20.232Z,530.00
2023-04-30T02:44:20.238Z,529.00
2023-04-30T02:45:20.288Z,525.00
2023-04-30T02:46:20.363Z,528.00
2023-04-30T02:47:20.328Z,530.00
2023-04-30T02:48:20.349Z,526.00
2023-04-30T02:49:20.358Z,524.00
2023-04-30T02:50:20.407Z,529.00
2023-04-30T02:51:20.417Z,527.00
2023-04-30T02:52:20.453Z,526.00
2023-04-30T02:53:20.496Z,529.00
2023-04-30T02:54:20.493Z,529.00
2023-04-30T02:55:20.557Z,523.00
2023-04-30T02:56:20.557Z,525.00
2023-04-30T02:57:20.593Z,529.00
2023-04-30T02:58:20.622Z,521.00
2023-04-30T02:59:20.672Z,518.00
2023-04-30T03:00:20.695Z,524.00
2023-04-30T03:01:20.773Z,521.00
2023-04-30T03:02:20.784Z,526.00
2023-04-30T03:03:21.056Z,529.00
2023-04-30T03:04:20.791Z,526.00
2023-04-30T03:05:20.818Z,525.00
2023-04-30T03:06:20.880Z,531.00
2023-04-30T03:07:20.891Z,527.00
2023-04-30T03:08:20.878Z,527.00
2023-04-30T03:09:20.956Z,527.00
2023-04-30T03:10:20.974Z,520.00
2023-04-30T03:11:21.005Z,524.00
2023-04-30T03:12:21.011Z,521.00
2023-04-30T03:13:21.026Z,528.00
2023-04-30T03:14:21.089Z,526.00
2023-04-30T03:15:21.108Z,525.00
2023-04-30T03:16:21.671Z,528.00
2023-04-30T03:17:21.286Z,522.00
2023-04-30T03:18:21.150Z,524.00
2023-04-30T03:19:21.198Z,529.00
2023-04-30T03:20:21.207Z,522.00
2023-04-30T03:21:21.274Z,521.00
2023-04-30T03:22:21.302Z,520.00
2023-04-30T03:23:21.324Z,525.00
2023-04-30T03:24:21.336Z,524.00
2023-04-30T03:25:21.373Z,524.00
2023-04-30T03:26:21.410Z,521.00
2023-04-30T03:27:21.443Z,525.00
2023-04-30T03:28:21.433Z,521.00
2023-04-30T03:29:21.513Z,527.00
2023-04-30T03:30:21.483Z,520.00
2023-04-30T03:31:21.549Z,524.00
2023-04-30T03:32:21.565Z,524.00
2023-04-30T03:33:21.607Z,524.00
2023-04-30T03:34:21.636Z,523.00
2023-04-30T03:35:21.624Z,522.00
2023-04-30T03:36:21.670Z,519.00
2023-04-30T03:37:21.687Z,519.00
2023-04-30T03:38:21.738Z,519.00
2023-04-30T03:39:21.749Z,519.00
2023-04-30T03:40:21.758Z,514.00
2023-04-30T03:41:22.194Z,525.00
2023-04-30T03:42:21.875Z,519.00
2023-04-30T03:43:21.813Z,522.00
2023-04-30T03:44:21.850Z,519.00
2023-04-30T03:45:21.911Z,519.00
2023-04-30T03:46:21.953Z,522.00
2023-04-30T03:47:21.923Z,521.00
2023-04-30T03:48:21.970Z,523.00
2023-04-30T03:49:22.012Z,519.00
2023-04-30T03:50:22.020Z,518.00
2023-04-30T03:51:22.031Z,518.00
2023-04-30T03:52:22.050Z,520.00
2023-04-30T03:53:22.090Z,520.00
2023-04-30T03:54:22.115Z,519.00
2023-04-30T03:55:22.179Z,517.00
2023-04-30T03:56:22.180Z,518.00
2023-04-30T03:57:22.181Z,519.00
2023-04-30T03:58:22.196Z,520.00
2023-04-30T03:59:22.231Z,523.00
2023-04-30T04:00:22.303Z,517.00
2023-04-30T04:01:22.358Z,521.00
2023-04-30T04:02:22.352Z,512.00
2023-04-30T04:03:22.348Z,521.00
2023-04-30T04:04:22.422Z,512.00
2023-04-30T04:05:22.521Z,520.00
2023-04-30T04:06:22.506Z,521.00
2023-04-30T04:07:22.479Z,517.00
2023-04-30T04:08:22.504Z,522.00
2023-04-30T04:09:22.514Z,516.00
2023-04-30T04:10:22.543Z,514.00
2023-04-30T04:11:22.638Z,513.00
2023-04-30T04:12:22.641Z,519.00
2023-04-30T04:13:22.645Z,510.00
2023-04-30T04:14:22.647Z,514.00
2023-04-30T04:15:22.705Z,515.00
2023-04-30T04:16:22.756Z,516.00
2023-04-30T04:17:22.860Z,519.00
2023-04-30T04:18:22.785Z,517.00
2023-04-30T04:19:22.805Z,513.00
2023-04-30T04:20:22.832Z,514.00
2023-04-30T04:21:22.866Z,515.00
2023-04-30T04:22:22.869Z,519.00
2023-04-30T04:23:22.970Z,518.00
2023-04-30T04:24:22.964Z,514.00
2023-04-30T04:25:22.956Z,513.00
2023-04-30T04:26:23.005Z,516.00
2023-04-30T04:27:23.028Z,517.00
2023-04-30T04:28:23.062Z,518.00
2023-04-30T04:29:23.062Z,515.00
2023-04-30T04:30:23.100Z,517.00
2023-04-30T04:31:23.195Z,513.00
2023-04-30T04:32:23.176Z,510.00
2023-04-30T04:33:23.198Z,517.00
2023-04-30T04:34:23.217Z,517.00
2023-04-30T04:35:23.234Z,517.00
2023-04-30T04:36:23.260Z,512.00
2023-04-30T04:37:23.276Z,514.00
2023-04-30T04:38:23.343Z,513.00
2023-04-30T04:39:23.372Z,514.00
2023-04-30T04:40:23.362Z,517.00
2023-04-30T04:41:23.406Z,512.00
2023-04-30T04:42:23.468Z,513.00
2023-04-30T04:43:23.458Z,514.00
2023-04-30T04:44:23.529Z,516.00
2023-04-30T04:45:23.532Z,512.00
2023-04-30T04:46:23.590Z,512.00
2023-04-30T04:47:23.623Z,513.00
2023-04-30T04:48:23.633Z,515.00
2023-04-30T04:49:23.658Z,511.00
2023-04-30T04:50:23.724Z,511.00
2023-04-30T04:51:23.732Z,507.00
2023-04-30T04:52:23.768Z,509.00
2023-04-30T04:53:23.780Z,509.00
2023-04-30T04:54:23.811Z,509.00
2023-04-30T04:55:23.814Z,511.00
2023-04-30T04:56:24.172Z,512.00
2023-04-30T04:57:23.905Z,508.00
2023-04-30T04:58:23.931Z,511.00
2023-04-30T04:59:23.966Z,507.00
2023-04-30T05:00:23.992Z,505.00
2023-04-30T05:01:24.179Z,509.00
2023-04-30T05:02:24.134Z,513.00
2023-04-30T05:03:24.140Z,509.00
2023-04-30T05:04:24.137Z,506.00
2023-04-30T05:05:24.135Z,502.00
2023-04-30T05:06:24.220Z,508.00
2023-04-30T05:07:24.194Z,508.00
2023-04-30T05:08:24.210Z,506.00
2023-04-30T05:09:24.234Z,504.00
2023-04-30T05:10:24.318Z,510.00
2023-04-30T05:11:24.334Z,507.00
2023-04-30T05:12:24.338Z,505.00
2023-04-30T05:13:24.351Z,505.00
2023-04-30T05:14:24.428Z,507.00
2023-04-30T05:15:24.436Z,502.00
2023-04-30T05:16:24.514Z,506.00
2023-04-30T05:17:24.531Z,504.00
2023-04-30T05:18:24.534Z,504.00
2023-04-30T05:19:24.540Z,511.00
2023-04-30T05:20:24.550Z,505.00
2023-04-30T05:21:24.595Z,503.00
2023-04-30T05:22:24.687Z,502.00
2023-04-30T05:23:24.634Z,504.00
2023-04-30T05:24:24.671Z,508.00
2023-04-30T05:25:24.718Z,500.00
2023-04-30T05:26:25.137Z,513.00
2023-04-30T05:27:24.775Z,509.00
2023-04-30T05:28:24.815Z,508.00
2023-04-30T05:29:24.848Z,510.00
2023-04-30T05:30:24.897Z,510.00
2023-04-30T05:31:24.943Z,506.00
2023-04-30T05:32:24.953Z,510.00
2023-04-30T05:33:25.003Z,506.00
2023-04-30T05:34:24.985Z,506.00
2023-04-30T05:35:25.028Z,502.00
2023-04-30T05:36:25.034Z,507.00
2023-04-30T05:37:25.103Z,503.00
2023-04-30T05:38:25.130Z,503.00
2023-04-30T05:39:25.134Z,502.00
2023-04-30T05:40:25.158Z,508.00
2023-04-30T05:41:25.207Z,509.00
2023-04-30T05:42:25.215Z,504.00
2023-04-30T05:43:25.235Z,500.00
2023-04-30T05:44:25.292Z,510.00
2023-04-30T05:45:25.299Z,507.00
2023-04-30T05:46:25.767Z,505.00
2023-04-30T05:47:25.391Z,510.00
2023-04-30T05:48:25.419Z,506.00
2023-04-30T05:49:25.470Z,511.00
2023-04-30T05:50:25.478Z,507.00
2023-04-30T05:51:25.516Z,506.00
2023-04-30T05:52:25.603Z,507.00
2023-04-30T05:53:25.609Z,509.00
2023-04-30T05:54:25.604Z,502.00
2023-04-30T05:55:25.669Z,503.00
2023-04-30T05:56:25.689Z,502.00
2023-04-30T05:57:25.741Z,505.00
2023-04-30T05:58:25.739Z,502.00
2023-04-30T05:59:25.778Z,505.00
2023-04-30T06:00:25.857Z,507.00
2023-04-30T06:01:25.844Z,507.00
2023-04-30T06:02:26.085Z,508.00
2023-04-30T06:03:25.939Z,510.00
2023-04-30T06:04:25.945Z,510.00
2023-04-30T06:05:26.044Z,509.00
2023-04-30T06:06:26.077Z,504.00
2023-04-30T06:07:26.060Z,510.00
2023-04-30T06:08:26.081Z,506.00
2023-04-30T06:09:26.123Z,507.00
2023-04-30T06:10:26.170Z,505.00
2023-04-30T06:11:26.206Z,500.00
2023-04-30T06:12:26.230Z,507.00
2023-04-30T06:13:26.284Z,504.00
2023-04-30T06:14:26.273Z,508.00
2023-04-30T06:15:26.312Z,506.00
2023-04-30T06:16:26.402Z,507.00
2023-04-30T06:17:26.722Z,504.00
2023-04-30T06:18:26.393Z,509.00
2023-04-30T06:19:26.426Z,506.00
2023-04-30T06:20:26.462Z,507.00
2023-04-30T06:21:26.531Z,507.00
2023-04-30T06:22:26.649Z,504.00
2023-04-30T06:23:26.595Z,505.00
2023-04-30T06:24:26.597Z,508.00
2023-04-30T06:25:26.653Z,506.00
2023-04-30T06:26:26.636Z,508.00
2023-04-30T06:27:26.690Z,503.00
2023-04-30T06:28:26.709Z,508.00
2023-04-30T06:29:26.741Z,506.00
2023-04-30T06:30:26.802Z,504.00
2023-04-30T06:31:26.862Z,503.00
2023-04-30T06:32:26.815Z,508.00
2023-04-30T06:33:26.861Z,505.00
2023-04-30T06:34:26.829Z,508.00
2023-04-30T06:35:26.889Z,506.00
2023-04-30T06:36:26.925Z,510.00
2023-04-30T06:37:27.166Z,504.00
2023-04-30T06:38:26.983Z,506.00
2023-04-30T06:39:26.971Z,503.00
2023-04-30T06:40:27.046Z,500.00
2023-04-30T06:41:27.031Z,502.00
2023-04-30T06:42:27.042Z,500.00
2023-04-30T06:43:27.076Z,500.00
2023-04-30T06:44:27.122Z,503.00
2023-04-30T06:45:27.223Z,505.00
2023-04-30T06:46:27.207Z,503.00
2023-04-30T06:47:27.228Z,502.00
2023-04-30T06:48:27.226Z,503.00
2023-04-30T06:49:27.254Z,505.00
2023-04-30T06:50:27.250Z,506.00
2023-04-30T06:51:27.337Z,505.00
2023-04-30T06:52:27.344Z,501.00
2023-04-30T06:53:27.359Z,506.00
2023-04-30T06:54:27.392Z,506.00
2023-04-30T06:55:27.414Z,506.00
2023-04-30T06:56:27.445Z,507.00
2023-04-30T06:57:27.462Z,508.00
2023-04-30T06:58:27.464Z,509.00
2023-04-30T06:59:27.492Z,507.00
2023-04-30T07:00:27.500Z,512.00
2023-04-30T07:01:27.622Z,507.00
2023-04-30T07:02:27.638Z,505.00
2023-04-30T07:03:27.654Z,509.00
2023-04-30T07:04:27.646Z,507.00
2023-04-30T07:05:27.675Z,511.00
2023-04-30T07:06:27.724Z,509.00
2023-04-30T07:07:27.703Z,505.00
2023-04-30T07:08:27.769Z,508.00
2023-04-30T07:09:27.765Z,502.00
2023-04-30T07:10:27.801Z,502.00
2023-04-30T07:11:27.809Z,509.00
2023-04-30T07:12:28.200Z,504.00
2023-04-30T07:13:27.855Z,506.00
2023-04-30T07:14:27.891Z,509.00
2023-04-30T07:15:27.915Z,506.00
2023-04-30T07:16:28.075Z,507.00
2023-04-30T07:17:28.014Z,508.00
2023-04-30T07:18:28.001Z,504.00
2023-04-30T07:19:28.055Z,507.00
2023-04-30T07:20:28.054Z,505.00
2023-04-30T07:21:28.092Z,507.00
2023-04-30T07:22:28.160Z,500.00
2023-04-30T07:23:30.466Z,506.00
2023-04-30T07:24:28.271Z,508.00
2023-04-30T07:25:28.271Z,505.00
2023-04-30T07:26:28.319Z,510.00
2023-04-30T07:27:28.326Z,507.00
2023-04-30T07:28:28.397Z,512.00
2023-04-30T07:29:28.379Z,511.00
2023-04-30T07:30:28.384Z,511.00
2023-04-30T07:31:28.493Z,515.00
2023-04-30T07:32:28.468Z,510.00
2023-04-30T07:33:28.498Z,505.00
2023-04-30T07:34:28.520Z,507.00
2023-04-30T07:35:28.568Z,516.00
2023-04-30T07:36:28.550Z,513.00
2023-04-30T07:37:28.627Z,509.00
2023-04-30T07:38:28.631Z,510.00
2023-04-30T07:39:28.647Z,511.00
2023-04-30T07:40:35.971Z,509.00
2023-04-30T07:41:29.647Z,509.00
2023-04-30T07:42:28.654Z,508.00
2023-04-30T07:43:29.987Z,511.00
2023-04-30T07:44:28.757Z,511.00
2023-04-30T07:45:28.776Z,512.00
2023-04-30T07:46:28.860Z,509.00
2023-04-30T07:47:28.868Z,511.00
2023-04-30T07:48:28.867Z,509.00
2023-04-30T07:49:28.892Z,509.00
2023-04-30T07:50:28.904Z,509.00
2023-04-30T07:51:28.940Z,513.00
2023-04-30T07:52:28.959Z,513.00
2023-04-30T07:53:29.002Z,509.00
2023-04-30T07:54:29.035Z,512.00
2023-04-30T07:55:29.057Z,512.00
2023-04-30T07:56:29.084Z,511.00
2023-04-30T07:57:29.136Z,509.00
2023-04-30T07:58:29.148Z,510.00
2023-04-30T07:59:29.140Z,508.00
2023-04-30T08:00:29.170Z,508.00
2023-04-30T08:01:29.234Z,510.00
2023-04-30T08:02:29.276Z,511.00
2023-04-30T08:03:29.335Z,505.00
2023-04-30T08:04:29.357Z,504.00
2023-04-30T08:05:29.344Z,512.00
2023-04-30T08:06:29.393Z,516.00
2023-04-30T08:07:29.330Z,513.00
2023-04-30T08:08:29.389Z,509.00
2023-04-30T08:09:29.443Z,513.00
2023-04-30T08:10:29.453Z,511.00
2023-04-30T08:11:29.492Z,510.00
2023-04-30T08:12:29.513Z,506.00
2023-04-30T08:13:29.540Z,511.00
2023-04-30T08:14:29.564Z,511.00
2023-04-30T08:15:30.632Z,505.00
2023-04-30T08:16:29.639Z,508.00
2023-04-30T08:17:29.655Z,510.00
2023-04-30T08:18:29.657Z,515.00
2023-04-30T08:19:29.699Z,509.00
2023-04-30T08:20:29.723Z,508.00
2023-04-30T08:21:29.760Z,509.00
2023-04-30T08:22:29.753Z,505.00
2023-04-30T08:23:29.805Z,509.00
2023-04-30T08:24:29.845Z,508.00
2023-04-30T08:25:29.847Z,509.00
2023-04-30T08:26:29.880Z,503.00
2023-04-30T08:27:29.894Z,508.00
2023-04-30T08:28:29.943Z,512.00
2023-04-30T08:29:29.952Z,507.00
2023-04-30T08:30:30.018Z,512.00
2023-04-30T08:31:30.041Z,507.00
2023-04-30T08:32:30.059Z,511.00
2023-04-30T08:33:30.115Z,503.00
2023-04-30T08:34:30.075Z,508.00
2023-04-30T08:35:30.144Z,504.00
2023-04-30T08:36:30.164Z,503.00
2023-04-30T08:37:30.169Z,505.00
2023-04-30T08:38:30.197Z,506.00
2023-04-30T08:39:30.224Z,507.00
2023-04-30T08:40:49.296Z,509.00
2023-04-30T08:41:31.263Z,509.00
2023-04-30T08:42:30.234Z,509.00
2023-04-30T08:43:30.232Z,506.00
2023-04-30T08:44:30.220Z,505.00
2023-04-30T08:45:30.231Z,505.00
2023-04-30T08:46:30.227Z,504.00
2023-04-30T08:47:30.222Z,508.00
2023-04-30T08:48:30.230Z,508.00
2023-04-30T08:49:30.180Z,505.00
2023-04-30T08:50:30.182Z,504.00
2023-04-30T08:51:30.225Z,509.00
2023-04-30T08:52:30.210Z,509.00
2023-04-30T08:53:30.162Z,501.00
2023-04-30T08:54:30.149Z,506.00
2023-04-30T08:55:30.129Z,502.00
2023-04-30T08:56:30.110Z,501.00
2023-04-30T08:57:30.126Z,502.00
2023-04-30T08:58:30.150Z,505.00
2023-04-30T08:59:30.154Z,504.00
2023-04-30T09:00:30.196Z,502.00
2023-04-30T09:01:30.267Z,500.00
2023-04-30T09:02:30.317Z,503.00
2023-04-30T09:03:30.378Z,503.00
2023-04-30T09:04:30.313Z,503.00
2023-04-30T09:05:30.346Z,503.00
2023-04-30T09:06:30.396Z,504.00
2023-04-30T09:07:30.406Z,504.00
2023-04-30T09:08:30.398Z,509.00
2023-04-30T09:09:30.462Z,508.00
2023-04-30T09:10:30.491Z,504.00
2023-04-30T09:11:30.504Z,503.00
2023-04-30T09:12:30.523Z,504.00
2023-04-30T09:13:30.564Z,506.00
2023-04-30T09:14:30.559Z,507.00
2023-04-30T09:15:30.596Z,503.00
2023-04-30T09:16:30.677Z,508.00
2023-04-30T09:17:30.769Z,505.00
2023-04-30T09:18:30.702Z,503.00
2023-04-30T09:19:30.718Z,505.00
2023-04-30T09:20:30.730Z,509.00
2023-04-30T09:21:30.760Z,504.00
2023-04-30T09:22:30.782Z,505.00
2023-04-30T09:23:30.830Z,502.00
2023-04-30T09:24:30.852Z,510.00
2023-04-30T09:25:30.906Z,504.00
2023-04-30T09:26:30.932Z,505.00
2023-04-30T09:27:31.258Z,503.00
2023-04-30T09:28:30.949Z,508.00
2023-04-30T09:29:30.972Z,508.00
2023-04-30T09:30:31.016Z,505.00
2023-04-30T09:31:31.029Z,510.00
2023-04-30T09:32:31.084Z,510.00
2023-04-30T09:33:31.064Z,506.00
2023-04-30T09:34:31.116Z,507.00
2023-04-30T09:35:31.172Z,506.00
2023-04-30T09:36:31.125Z,510.00
2023-04-30T09:37:31.211Z,505.00
2023-04-30T09:38:31.217Z,507.00
2023-04-30T09:39:31.229Z,502.00
2023-04-30T09:40:31.257Z,502.00
2023-04-30T09:41:31.279Z,510.00
2023-04-30T09:42:31.329Z,509.00
2023-04-30T09:43:31.308Z,508.00
2023-04-30T09:44:31.376Z,507.00
2023-04-30T09:45:33.077Z,510.00
2023-04-30T09:46:31.462Z,509.00
2023-04-30T09:47:31.498Z,510.00
2023-04-30T09:48:31.463Z,505.00
2023-04-30T09:49:31.459Z,504.00
2023-04-30T09:50:31.495Z,507.00
2023-04-30T09:51:31.488Z,507.00
2023-04-30T09:52:31.562Z,505.00
2023-04-30T09:53:31.552Z,508.00
2023-04-30T09:54:32.263Z,505.00
2023-04-30T09:55:31.611Z,510.00
2023-04-30T09:56:31.602Z,510.00
2023-04-30T09:57:31.768Z,507.00
2023-04-30T09:58:31.690Z,510.00
2023-04-30T09:59:31.695Z,506.00
2023-04-30T10:00:31.732Z,508.00
2023-04-30T10:01:31.748Z,508.00
2023-04-30T10:02:31.848Z,507.00
2023-04-30T10:03:31.808Z,506.00
2023-04-30T10:04:31.802Z,507.00
2023-04-30T10:05:31.847Z,505.00
2023-04-30T10:06:31.942Z,503.00
2023-04-30T10:07:32.283Z,510.00
2023-04-30T10:08:31.950Z,506.00
2023-04-30T10:09:31.936Z,504.00
2023-04-30T10:10:31.946Z,504.00
2023-04-30T10:11:31.993Z,507.00
2023-04-30T10:12:32.296Z,508.00
2023-04-30T10:13:32.068Z,505.00
2023-04-30T10:14:32.094Z,509.00
2023-04-30T10:15:32.083Z,506.00
2023-04-30T10:16:32.185Z,503.00
2023-04-30T10:17:32.148Z,501.00
2023-04-30T10:18:32.175Z,504.00
2023-04-30T10:19:32.191Z,505.00
2023-04-30T10:20:32.206Z,505.00
2023-04-30T10:21:32.266Z,509.00
2023-04-30T10:22:32.266Z,504.00
2023-04-30T10:23:32.785Z,506.00
2023-04-30T10:24:32.333Z,507.00
2023-04-30T10:25:32.349Z,504.00
2023-04-30T10:26:32.390Z,500.00
2023-04-30T10:27:32.384Z,502.00
2023-04-30T10:28:32.772Z,504.00
2023-04-30T10:29:32.459Z,502.00
2023-04-30T10:30:33.250Z,504.00
2023-04-30T10:31:32.499Z,505.00
2023-04-30T10:32:32.612Z,508.00
2023-04-30T10:33:32.525Z,507.00
2023-04-30T10:34:32.553Z,505.00
2023-04-30T10:35:32.583Z,505.00
2023-04-30T10:36:32.571Z,505.00
2023-04-30T10:37:32.630Z,507.00
2023-04-30T10:38:32.667Z,502.00
2023-04-30T10:39:32.670Z,505.00
2023-04-30T10:40:32.696Z,507.00
2023-04-30T10:41:32.778Z,505.00
2023-04-30T10:42:32.729Z,506.00
2023-04-30T10:43:32.769Z,505.00
2023-04-30T10:44:32.766Z,506.00
2023-04-30T10:45:32.817Z,505.00
2023-04-30T10:46:32.916Z,504.00
2023-04-30T10:47:32.890Z,503.00
2023-04-30T10:48:33.282Z,507.00
2023-04-30T10:49:32.879Z,505.00
2023-04-30T10:50:32.885Z,507.00
2023-04-30T10:51:32.892Z,508.00
2023-04-30T10:52:32.960Z,505.00
2023-04-30T10:53:33.306Z,507.00
2023-04-30T10:54:32.980Z,504.00
2023-04-30T10:55:32.990Z,508.00
2023-04-30T10:56:33.022Z,502.00
2023-04-30T10:57:33.047Z,509.00
2023-04-30T10:58:33.307Z,505.00
2023-04-30T10:59:33.079Z,507.00
2023-04-30T11:00:33.138Z,507.00
2023-04-30T11:01:33.129Z,508.00
2023-04-30T11:02:33.178Z,504.00
2023-04-30T11:03:33.159Z,506.00
2023-04-30T11:04:33.197Z,509.00
2023-04-30T11:05:33.220Z,507.00
2023-04-30T11:06:33.261Z,507.00
2023-04-30T11:07:33.256Z,505.00
2023-04-30T11:08:33.272Z,503.00
2023-04-30T11:09:33.266Z,504.00
2023-04-30T11:10:33.286Z,502.00
2023-04-30T11:11:33.299Z,503.00
2023-04-30T11:12:33.329Z,508.00
2023-04-30T11:13:33.388Z,519.00
2023-04-30T11:14:33.403Z,506.00
2023-04-30T11:15:33.444Z,511.00
2023-04-30T11:16:33.509Z,514.00
2023-04-30T11:17:33.449Z,511.00
2023-04-30T11:18:33.462Z,513.00
2023-04-30T11:19:33.505Z,507.00
2023-04-30T11:20:33.515Z,509.00
2023-04-30T11:21:33.514Z,509.00
2023-04-30T11:22:33.525Z,514.00
2023-04-30T11:24:33.580Z,511.00
2023-04-30T11:25:33.576Z,511.00
2023-04-30T11:26:33.582Z,511.00
2023-04-30T11:27:33.553Z,508.00
2023-04-30T11:28:33.874Z,508.00
2023-04-30T11:29:33.556Z,511.00
2023-04-30T11:30:33.534Z,510.00
2023-04-30T11:31:33.560Z,509.00
2023-04-30T11:32:33.507Z,511.00
2023-04-30T11:33:33.489Z,510.00
2023-04-30T11:34:33.534Z,508.00
2023-04-30T11:35:33.468Z,507.00
2023-04-30T11:36:33.501Z,508.00
2023-04-30T11:37:33.471Z,511.00
2023-04-30T11:38:33.484Z,512.00
2023-04-30T11:39:33.474Z,510.00
2023-04-30T11:40:33.432Z,511.00
2023-04-30T11:41:33.426Z,508.00
2023-04-30T11:42:33.407Z,510.00
2023-04-30T11:43:33.441Z,505.00
2023-04-30T11:44:33.419Z,506.00
2023-04-30T11:45:33.410Z,508.00
2023-04-30T11:46:33.410Z,508.00
2023-04-30T11:47:33.434Z,509.00
2023-04-30T11:48:33.852Z,511.00
2023-04-30T11:49:33.397Z,507.00
2023-04-30T11:50:33.404Z,514.00
2023-04-30T11:51:33.398Z,505.00
2023-04-30T11:52:33.368Z,511.00
2023-04-30T11:53:33.360Z,509.00
2023-04-30T11:54:33.384Z,508.00
2023-04-30T11:55:33.383Z,505.00
2023-04-30T11:56:33.351Z,513.00
2023-04-30T11:57:33.331Z,509.00
2023-04-30T11:58:33.332Z,510.00
2023-04-30T11:59:33.378Z,509.00
2023-04-30T12:00:33.416Z,508.00
2023-04-30T12:01:33.482Z,507.00
2023-04-30T12:02:33.523Z,508.00
2023-04-30T12:03:33.539Z,504.00
2023-04-30T12:04:33.505Z,509.00
2023-04-30T12:05:33.492Z,507.00
2023-04-30T12:06:33.538Z,511.00
2023-04-30T12:07:33.645Z,507.00
2023-04-30T12:08:33.585Z,510.00
2023-04-30T12:09:33.578Z,510.00
2023-04-30T12:10:33.611Z,515.00
2023-04-30T12:11:33.625Z,510.00
2023-04-30T12:12:33.635Z,510.00
2023-04-30T12:13:33.823Z,513.00
2023-04-30T12:14:33.668Z,507.00
2023-04-30T12:15:33.696Z,510.00
2023-04-30T12:16:33.741Z,511.00
2023-04-30T12:17:33.766Z,504.00
2023-04-30T12:18:33.754Z,510.00
2023-04-30T12:19:33.782Z,511.00
2023-04-30T12:20:33.770Z,506.00
2023-04-30T12:21:33.815Z,503.00
2023-04-30T12:22:33.794Z,506.00
2023-04-30T12:23:33.800Z,513.00
2023-04-30T12:24:33.872Z,513.00
2023-04-30T12:25:33.829Z,511.00
2023-04-30T12:26:33.838Z,512.00
2023-04-30T12:27:33.888Z,513.00
2023-04-30T12:28:33.888Z,515.00
2023-04-30T12:29:33.893Z,504.00